Longbranch, WA (98351)

6:46 AM PST on February 26, 2017 (GMT -0800)
Taylor Bay | | Change Station
Active Advisory: Winter Weather Advisory

Elev 100 ft 47.18 °N, 122.77 °W | Updated 3 minutes ago

Rain
Rain
37.0 °F
Feels Like 37 °F
N
1.7
Wind Variable Wind from WSW

Today
High -- | Low -- °F
--% Chance of Precip.
Yesterday
High -- | Low -- °F
Precip. -- in
Pressure 29.72 in
Visibility 10.0 miles
Clouds Few 900 ft
Overcast 2900 ft
Windchill 37 °F
Dew Point 35 °F
Humidity 91%
Rainfall 0.05 in
Snow Depth Not available.
6:55 AM 5:52 PM
Waning Crescent, 0% visible
METAR KTIW 261353Z AUTO VRB06KT 10SM -RA FEW009 OVC029 02/01 A2970 RMK AO2 SLP062 P0001 T00220011
Pressure 29.72 in
Visibility 10.0 miles
Clouds Few 900 ft
Overcast 2900 ft
Windchill 37 °F
Dew Point 35 °F
Humidity 91%
Rainfall 0.05 in
Snow Depth Not available.
6:55 AM 5:52 PM
Waning Crescent, 0% visible
METAR KTIW 261353Z AUTO VRB06KT 10SM -RA FEW009 OVC029 02/01 A2970 RMK AO2 SLP062 P0001 T00220011

Get Your Daily Forecast Email!

Thanks for signing up!

Be on the lookout for a verification email in your inbox.

You'll start receiving the daily forecast at 8 AM.

×

10-Day Weather Forecast

Almanac

Astronomy

Feb. 26, 2017 Rise Set
Actual Time
Civil Twilight
Nautical Twilight
Astronomical Twilight
Moon
Length of Visible Light
Length of Day
Tomorrow will be .
, % of the Moon is Illuminated

Today's Extremes

State Highs State Lows

Community

WunderPhotos

Upload Photos

1,962,540 photos uploaded!

WunderBlog® & News

Nearby

Air Quality

  Air Quality AQ Index Pollutant
Not available.

Snow Depth

Station Depth Elevation

Earthquake Activity

City Distance Mag. Time & Date
Minimum magnitude displayed is 2.5.

Coastal Water Temperatures

Place Temperature

Stations

Nearby Weather Stations

Station Location Temp. Windchill Dew Point Humidity Wind Precip. Elev Updated Type
                   

Watches & Warnings

Winter Weather Advisory
Issued: 3:00 AM PST Feb. 26, 2017 – National Weather Service

... Winter Weather Advisory remains in effect until 10 am PST this
morning...

* some affected locations... Seattle, Tacoma, Everett, Bremerton,
Bellevue, Olympia, Bellingham, Friday Harbor.

* Snow accumulations... around 1 inch on hills above 300 feet
elevation. Areas below 300 feet will see little or no
accumulation. Higher hills and inland areas may get up to three inches.

* Snow level... 300 feet this morning rising to 1000 feet in the
afternoon.

* Main impact... snow will cause locally slippery roadways and
hazardous driving conditions.


Precautionary/preparedness actions...

A Winter Weather Advisory for snow means that periods of snow
will cause primarily travel difficulties. Be prepared for snow
covered roads and limited visibilities, and use caution while
driving.